Terminal Aerodrome Forecast
Issued by NWS

Home | Current Version | Previous Version | Graphics & Text | Print | Product List | Glossary On
Versions: 1 2 3 4 5 6 7 8 9 10 11 12 13 14 15 16 17 18 19 20 21 22
764
FTUS43 KABR 201054 AAC
TAFATY
TAF AMD
KATY 201054Z 2011/2106 04004KT 2SM BR SCT250
      TEMPO 2011/2013 1/4SM FG VV002
     FM201300 05006KT P6SM SCT250
     FM202100 11008KT P6SM BKN200=

USA.gov is the U.S. government's official web portal to all federal, state and local government web resources and services.